createdAt,value
2019-02-26T00:00:56.505Z,103179.22
2019-02-26T00:02:04.434Z,103179.59
2019-02-26T00:03:11.240Z,103175.45
2019-02-26T00:04:20.824Z,103173.33
2019-02-26T00:05:28.416Z,103168.00
2019-02-26T00:06:34.756Z,103162.59
2019-02-26T00:07:41.649Z,103155.67
2019-02-26T00:08:51.276Z,103158.44
2019-02-26T00:09:59.461Z,103157.05
2019-02-26T00:11:08.323Z,103151.45
2019-02-26T00:12:14.400Z,103147.53
2019-02-26T00:13:21.167Z,103146.96
2019-02-26T00:14:30.252Z,103142.94
2019-02-26T00:15:38.105Z,103141.83
2019-02-26T00:16:46.663Z,103143.22
2019-02-26T00:17:53.134Z,103143.80
2019-02-26T00:19:02.619Z,103151.05
2019-02-26T00:20:10.917Z,103143.22
2019-02-26T00:21:17.628Z,103150.77
2019-02-26T00:22:24.321Z,103151.91
2019-02-26T00:23:31.081Z,103143.60
2019-02-26T00:24:39.749Z,103143.60
2019-02-26T00:25:46.233Z,103141.13
2019-02-26T00:26:52.947Z,103141.48
2019-02-26T00:27:59.606Z,103140.33
2019-02-26T00:29:08.353Z,103146.39
2019-02-26T00:30:16.754Z,103143.02
2019-02-26T00:31:24.298Z,103145.81
2019-02-26T00:32:32.354Z,103142.58
2019-02-26T00:33:40.495Z,103145.59
2019-02-26T00:34:47.469Z,103143.15
2019-02-26T00:35:54.207Z,103146.11
2019-02-26T00:37:01.802Z,103149.02
2019-02-26T00:38:11.077Z,103148.58
2019-02-26T00:39:18.095Z,103152.61
2019-02-26T00:40:25.114Z,103145.57
2019-02-26T00:41:33.541Z,103146.55
2019-02-26T00:42:40.505Z,103145.57
2019-02-26T00:43:51.197Z,103151.14
2019-02-26T00:44:58.277Z,103147.55
2019-02-26T00:46:05.587Z,103148.13
2019-02-26T00:47:13.236Z,103151.66
2019-02-26T00:48:20.323Z,103159.97
2019-02-26T00:49:28.488Z,103160.45
2019-02-26T00:50:37.431Z,103158.25
2019-02-26T00:51:46.506Z,103157.78
2019-02-26T00:52:56.492Z,103159.05
2019-02-26T00:54:02.380Z,103158.69
2019-02-26T00:55:10.464Z,103155.58
2019-02-26T00:56:17.203Z,103156.08
2019-02-26T00:57:27.140Z,103153.89
2019-02-26T00:58:37.049Z,103149.44
2019-02-26T00:59:43.613Z,103152.39
2019-02-26T01:00:49.931Z,103156.23
2019-02-26T01:01:59.302Z,103153.55
2019-02-26T01:03:06.094Z,103158.68
2019-02-26T01:04:14.055Z,103160.88
2019-02-26T01:05:20.768Z,103156.72
2019-02-26T01:06:28.982Z,103159.09
2019-02-26T01:07:36.019Z,103155.32
2019-02-26T01:08:44.775Z,103150.59
2019-02-26T01:09:52.481Z,103150.88
2019-02-26T01:11:01.562Z,103150.84
2019-02-26T01:12:09.192Z,103149.78
2019-02-26T01:13:17.270Z,103145.57
2019-02-26T01:14:24.691Z,103143.23
2019-02-26T01:15:31.441Z,103143.27
2019-02-26T01:16:39.410Z,103142.82
2019-02-26T01:17:46.606Z,103148.39
2019-02-26T01:18:53.290Z,103149.08
2019-02-26T01:20:00.992Z,103150.28
2019-02-26T01:21:08.758Z,103145.78
2019-02-26T01:22:15.454Z,103149.31
2019-02-26T01:23:24.246Z,103150.64
2019-02-26T01:24:32.704Z,103158.32
2019-02-26T01:25:39.432Z,103151.16
2019-02-26T01:26:46.272Z,103151.78
2019-02-26T01:27:53.276Z,103151.00
2019-02-26T01:29:01.375Z,103141.31
2019-02-26T01:30:10.256Z,103148.65
2019-02-26T01:31:16.980Z,103146.39
2019-02-26T01:32:24.930Z,103143.13
2019-02-26T01:33:32.124Z,103145.16
2019-02-26T01:34:42.766Z,103138.69
2019-02-26T01:35:52.717Z,103144.91
2019-02-26T01:37:00.814Z,103138.37
2019-02-26T01:38:07.682Z,103137.31
2019-02-26T01:39:16.226Z,103133.70
2019-02-26T01:40:25.624Z,103125.86
2019-02-26T01:41:31.952Z,103120.66
2019-02-26T01:42:39.199Z,103127.92
2019-02-26T01:43:46.143Z,103122.81
2019-02-26T01:44:52.938Z,103125.66
2019-02-26T01:45:59.582Z,103121.27
2019-02-26T01:47:06.668Z,103121.83
2019-02-26T01:48:16.733Z,103117.70
2019-02-26T01:49:23.577Z,103121.22
2019-02-26T01:50:31.494Z,103115.56
2019-02-26T01:51:38.732Z,103118.95
2019-02-26T01:52:45.741Z,103110.72
2019-02-26T01:53:53.684Z,103112.77
2019-02-26T01:55:02.728Z,103111.89
2019-02-26T01:56:09.165Z,103107.42
2019-02-26T01:57:17.333Z,103104.69
2019-02-26T01:58:24.503Z,103108.56
2019-02-26T01:59:31.722Z,103105.03
2019-02-26T02:00:40.932Z,103109.23
2019-02-26T02:01:49.695Z,103104.77
2019-02-26T02:02:56.725Z,103103.08
2019-02-26T02:04:03.448Z,103096.29
2019-02-26T02:05:10.680Z,103096.45
2019-02-26T02:06:18.226Z,103087.77
2019-02-26T02:07:26.037Z,103086.50
2019-02-26T02:08:33.742Z,103088.36
2019-02-26T02:09:41.152Z,103083.70
2019-02-26T02:10:49.647Z,103084.36
2019-02-26T02:11:57.395Z,103086.24
2019-02-26T02:13:07.084Z,103078.41
2019-02-26T02:14:16.658Z,103084.56
2019-02-26T02:15:23.737Z,103078.16
2019-02-26T02:16:31.466Z,103081.83
2019-02-26T02:17:40.126Z,103079.81
2019-02-26T02:18:48.845Z,103077.80
2019-02-26T02:19:55.246Z,103084.92
2019-02-26T02:21:01.980Z,103085.56
2019-02-26T02:22:09.974Z,103084.92
2019-02-26T02:23:19.387Z,103091.19
2019-02-26T02:24:26.412Z,103088.17
2019-02-26T02:25:35.638Z,103086.11
2019-02-26T02:26:45.324Z,103084.51
2019-02-26T02:27:52.529Z,103089.58
2019-02-26T02:28:59.267Z,103090.84
2019-02-26T02:30:07.550Z,103088.23
2019-02-26T02:31:14.612Z,103092.11
2019-02-26T02:32:24.113Z,103086.39
2019-02-26T02:33:32.082Z,103087.11
2019-02-26T02:34:39.979Z,103090.98
2019-02-26T02:35:47.778Z,103088.45
2019-02-26T02:36:54.434Z,103097.52
2019-02-26T02:38:02.843Z,103088.31
2019-02-26T02:39:13.036Z,103091.70
2019-02-26T02:40:18.455Z,103089.98
2019-02-26T02:41:25.233Z,103085.53
2019-02-26T02:42:31.905Z,103088.34
2019-02-26T02:43:40.042Z,103088.34
2019-02-26T02:44:49.223Z,103085.60
2019-02-26T02:45:56.474Z,103085.02
2019-02-26T02:47:06.081Z,103086.28
2019-02-26T02:48:14.203Z,103085.29
2019-02-26T02:49:21.145Z,103083.03
2019-02-26T02:50:27.796Z,103092.41
2019-02-26T02:51:36.468Z,103091.69
2019-02-26T02:52:43.476Z,103091.97
2019-02-26T02:53:51.093Z,103084.98
2019-02-26T02:54:58.621Z,103088.70
2019-02-26T02:56:06.355Z,103080.48
2019-02-26T02:57:13.998Z,103074.84
2019-02-26T02:58:23.096Z,103080.45
2019-02-26T02:59:30.999Z,103084.36
2019-02-26T03:00:38.558Z,103083.84
2019-02-26T03:01:48.349Z,103087.16
2019-02-26T03:02:56.163Z,103088.70
2019-02-26T03:04:02.758Z,103083.11
2019-02-26T03:05:10.749Z,103086.50
2019-02-26T03:06:17.451Z,103083.29
2019-02-26T03:07:26.726Z,103082.02
2019-02-26T03:08:32.568Z,103084.11
2019-02-26T03:09:40.698Z,103082.44
2019-02-26T03:10:48.126Z,103079.97
2019-02-26T03:11:55.195Z,103080.48
2019-02-26T03:13:03.004Z,103078.50
2019-02-26T03:14:10.940Z,103083.38
2019-02-26T03:15:18.520Z,103084.73
2019-02-26T03:16:27.175Z,103087.27
2019-02-26T03:17:33.914Z,103091.34
2019-02-26T03:18:40.714Z,103095.38
2019-02-26T03:19:47.362Z,103093.36
2019-02-26T03:20:56.599Z,103093.57
2019-02-26T03:22:03.596Z,103096.21
2019-02-26T03:23:15.127Z,103093.81
2019-02-26T03:24:19.002Z,103094.67
2019-02-26T03:25:29.011Z,103088.81
2019-02-26T03:26:35.108Z,103091.80
2019-02-26T03:27:42.631Z,103089.54
2019-02-26T03:28:51.382Z,103093.78
2019-02-26T03:29:59.088Z,103093.78
2019-02-26T03:31:06.235Z,103091.32
2019-02-26T03:32:13.015Z,103093.86
2019-02-26T03:33:19.797Z,103090.60
2019-02-26T03:34:26.700Z,103086.32
2019-02-26T03:35:33.442Z,103086.39
2019-02-26T03:36:42.830Z,103091.39
2019-02-26T03:37:51.441Z,103089.20
2019-02-26T03:38:59.788Z,103085.05
2019-02-26T03:40:08.202Z,103077.17
2019-02-26T03:41:16.611Z,103080.98
2019-02-26T03:42:24.159Z,103082.86
2019-02-26T03:43:31.396Z,103085.33
2019-02-26T03:44:39.289Z,103080.33
2019-02-26T03:45:48.082Z,103083.48
2019-02-26T03:46:54.668Z,103082.00
2019-02-26T03:48:01.698Z,103083.95
2019-02-26T03:49:08.586Z,103082.44
2019-02-26T03:50:16.996Z,103083.98
2019-02-26T03:51:24.005Z,103079.49
2019-02-26T03:52:32.097Z,103085.52
2019-02-26T03:53:39.815Z,103076.96
2019-02-26T03:54:48.616Z,103088.77
2019-02-26T03:55:59.588Z,103086.50
2019-02-26T03:57:04.956Z,103083.52
2019-02-26T03:58:11.621Z,103089.52
2019-02-26T03:59:18.289Z,103085.23
2019-02-26T04:00:25.333Z,103084.31
2019-02-26T04:01:32.007Z,103084.83
2019-02-26T04:02:39.942Z,103081.92
2019-02-26T04:03:47.335Z,103082.77
2019-02-26T04:04:56.553Z,103086.57
2019-02-26T04:06:03.138Z,103081.51
2019-02-26T04:07:11.550Z,103086.57
2019-02-26T04:08:20.085Z,103086.64
2019-02-26T04:09:27.137Z,103086.23
2019-02-26T04:10:33.808Z,103084.63
2019-02-26T04:11:44.854Z,103087.70
2019-02-26T04:12:52.350Z,103083.16
2019-02-26T04:13:57.934Z,103081.63
2019-02-26T04:15:05.080Z,103088.50
2019-02-26T04:16:12.146Z,103087.41
2019-02-26T04:17:23.110Z,103089.88
2019-02-26T04:18:27.766Z,103093.02
2019-02-26T04:19:34.902Z,103084.52
2019-02-26T04:20:44.326Z,103084.17
2019-02-26T04:22:31.469Z,103086.12
2019-02-26T04:23:39.704Z,103083.91
2019-02-26T04:24:47.452Z,103082.51
2019-02-26T04:27:00.528Z,103087.83
2019-02-26T04:28:58.341Z,103081.09
2019-02-26T04:30:47.071Z,103079.50
2019-02-26T04:32:46.298Z,103081.09
2019-02-26T04:34:59.621Z,103073.84
2019-02-26T04:37:12.867Z,103070.68
2019-02-26T04:39:22.240Z,103072.12
2019-02-26T04:41:32.570Z,103071.16
2019-02-26T04:43:42.124Z,103077.23
2019-02-26T04:45:48.732Z,103072.09
2019-02-26T04:47:21.943Z,103075.89
2019-02-26T04:48:32.529Z,103070.75
2019-02-26T04:49:42.731Z,103075.62
2019-02-26T04:50:48.057Z,103075.11
2019-02-26T04:51:54.779Z,103080.87
2019-02-26T04:53:04.855Z,103074.17
2019-02-26T04:54:10.091Z,103078.42
2019-02-26T04:55:16.745Z,103081.88
2019-02-26T04:56:24.085Z,103077.30
2019-02-26T04:57:31.154Z,103076.55
2019-02-26T04:58:41.886Z,103084.48
2019-02-26T04:59:47.159Z,103073.98
2019-02-26T05:00:54.113Z,103082.32
2019-02-26T05:02:01.107Z,103079.83
2019-02-26T05:03:11.213Z,103079.38
2019-02-26T05:04:16.970Z,103075.99
2019-02-26T05:05:25.848Z,103079.16
2019-02-26T05:06:32.439Z,103081.43
2019-02-26T05:07:43.808Z,103079.38
2019-02-26T05:08:49.083Z,103077.63
2019-02-26T05:09:56.975Z,103078.45
2019-02-26T05:11:04.537Z,103072.64
2019-02-26T05:12:11.240Z,103071.05
2019-02-26T05:13:17.966Z,103071.50
2019-02-26T05:14:24.676Z,103069.05
2019-02-26T05:15:33.244Z,103068.03
2019-02-26T05:16:40.779Z,103066.06
2019-02-26T05:17:47.961Z,103063.42
2019-02-26T05:18:58.273Z,103062.00
2019-02-26T05:20:06.293Z,103057.80
2019-02-26T05:21:13.027Z,103067.39
2019-02-26T05:22:22.644Z,103057.70
2019-02-26T05:23:31.062Z,103064.20
2019-02-26T05:24:38.674Z,103068.34
2019-02-26T05:25:45.140Z,103063.95
2019-02-26T05:26:51.826Z,103062.36
2019-02-26T05:27:58.480Z,103060.16
2019-02-26T05:29:12.175Z,103066.07
2019-02-26T05:30:20.073Z,103065.75
2019-02-26T05:31:29.777Z,103064.98
2019-02-26T05:32:36.364Z,103066.22
2019-02-26T05:33:43.059Z,103060.69
2019-02-26T05:34:50.846Z,103066.81
2019-02-26T05:35:57.680Z,103067.23
2019-02-26T05:37:07.465Z,103064.70
2019-02-26T05:38:13.193Z,103067.64
2019-02-26T05:39:21.064Z,103073.14
2019-02-26T05:40:28.210Z,103068.16
2019-02-26T05:41:35.250Z,103069.09
2019-02-26T05:42:42.338Z,103066.39
2019-02-26T05:43:52.188Z,103067.47
2019-02-26T05:45:00.638Z,103067.84
2019-02-26T05:46:07.235Z,103067.58
2019-02-26T05:47:16.686Z,103059.47
2019-02-26T05:48:23.807Z,103063.63
2019-02-26T05:49:32.208Z,103065.30
2019-02-26T05:50:43.861Z,103058.98
2019-02-26T05:51:48.791Z,103060.17
2019-02-26T05:52:57.983Z,103060.42
2019-02-26T05:54:07.770Z,103056.56
2019-02-26T05:55:16.401Z,103059.09
2019-02-26T05:56:22.902Z,103059.09
2019-02-26T05:57:32.616Z,103054.52
2019-02-26T05:58:41.929Z,103060.05
2019-02-26T05:59:49.510Z,103055.25
2019-02-26T06:00:56.191Z,103053.91
2019-02-26T06:02:03.234Z,103053.44
2019-02-26T06:03:12.258Z,103051.72
2019-02-26T06:04:20.662Z,103048.18
2019-02-26T06:05:27.816Z,103052.00
2019-02-26T06:06:35.238Z,103048.79
2019-02-26T06:07:41.964Z,103042.65
2019-02-26T06:08:49.008Z,103043.58
2019-02-26T06:09:57.249Z,103050.23
2019-02-26T06:11:04.490Z,103042.95
2019-02-26T06:12:11.257Z,103050.25
2019-02-26T06:13:18.026Z,103052.52
2019-02-26T06:14:27.206Z,103056.95
2019-02-26T06:15:34.160Z,103053.28
2019-02-26T06:16:43.145Z,103060.41
2019-02-26T06:17:51.478Z,103056.14
2019-02-26T06:18:58.781Z,103056.39
2019-02-26T06:20:23.420Z,103048.69
2019-02-26T06:21:29.591Z,103053.41
2019-02-26T06:22:36.280Z,103056.31
2019-02-26T06:23:43.982Z,103056.87
2019-02-26T06:24:54.987Z,103052.59
2019-02-26T06:26:02.347Z,103056.80
2019-02-26T06:27:13.063Z,103058.39
2019-02-26T06:28:18.608Z,103053.26
2019-02-26T06:29:27.398Z,103053.19
2019-02-26T06:30:35.072Z,103049.55
2019-02-26T06:31:44.194Z,103049.63
2019-02-26T06:32:50.897Z,103049.81
2019-02-26T06:34:01.472Z,103052.58
2019-02-26T06:35:11.008Z,103047.08
2019-02-26T06:36:18.606Z,103048.88
2019-02-26T06:37:28.430Z,103053.75
2019-02-26T06:38:35.236Z,103048.20
2019-02-26T06:39:41.950Z,103049.14
2019-02-26T06:40:49.544Z,103059.07
2019-02-26T06:41:57.400Z,103059.81
2019-02-26T06:43:04.430Z,103057.61
2019-02-26T06:44:11.429Z,103058.06
2019-02-26T06:45:18.097Z,103065.91
2019-02-26T06:46:26.964Z,103061.59
2019-02-26T06:47:33.869Z,103068.31
2019-02-26T06:48:40.896Z,103066.72
2019-02-26T06:49:48.567Z,103068.39
2019-02-26T06:50:57.536Z,103069.95
2019-02-26T06:52:06.479Z,103069.17
2019-02-26T06:53:16.124Z,103070.44
2019-02-26T06:54:25.061Z,103067.66
2019-02-26T06:55:31.429Z,103068.25
2019-02-26T06:56:43.309Z,103067.21
2019-02-26T06:57:52.179Z,103074.54
2019-02-26T06:58:55.773Z,103075.29
2019-02-26T07:00:04.241Z,103076.14
2019-02-26T07:01:12.021Z,103076.74
2019-02-26T07:02:19.925Z,103082.03
2019-02-26T07:03:26.603Z,103087.02
2019-02-26T07:04:33.284Z,103085.00
2019-02-26T07:05:42.367Z,103085.89
2019-02-26T07:06:48.717Z,103095.67
2019-02-26T07:07:57.049Z,103089.36
2019-02-26T07:09:04.741Z,103092.55
2019-02-26T07:10:15.963Z,103095.56
2019-02-26T07:11:25.608Z,103094.16
2019-02-26T07:12:30.480Z,103103.02
2019-02-26T07:13:39.132Z,103101.89
2019-02-26T07:14:46.462Z,103101.03
2019-02-26T07:15:53.954Z,103110.94
2019-02-26T07:17:00.702Z,103110.94
2019-02-26T07:18:10.275Z,103109.48
2019-02-26T07:19:16.747Z,103114.69
2019-02-26T07:20:33.674Z,103114.13
2019-02-26T07:21:32.904Z,103117.55
2019-02-26T07:22:41.497Z,103111.97
2019-02-26T07:23:48.741Z,103110.17
2019-02-26T07:24:56.597Z,103113.70
2019-02-26T07:26:03.556Z,103107.38
2019-02-26T07:27:11.615Z,103105.63
2019-02-26T07:28:20.619Z,103105.70
2019-02-26T07:29:30.712Z,103103.24
2019-02-26T07:30:37.594Z,103107.11
2019-02-26T07:31:44.192Z,103104.05
2019-02-26T07:32:50.894Z,103096.97
2019-02-26T07:33:58.207Z,103107.83
2019-02-26T07:35:08.748Z,103109.34
2019-02-26T07:36:18.323Z,103112.02
2019-02-26T07:37:25.041Z,103106.34
2019-02-26T07:38:40.578Z,103107.89
2019-02-26T07:39:41.932Z,103107.79
2019-02-26T07:40:48.837Z,103101.83
2019-02-26T07:41:55.878Z,103102.48
2019-02-26T07:43:04.890Z,103102.41
2019-02-26T07:44:15.335Z,103093.77
2019-02-26T07:45:22.262Z,103096.09
2019-02-26T07:46:28.193Z,103098.42
2019-02-26T07:47:36.382Z,103092.73
2019-02-26T07:48:43.285Z,103100.56
2019-02-26T07:49:50.246Z,103099.15
2019-02-26T07:50:57.272Z,103095.06
2019-02-26T07:52:06.706Z,103102.52
2019-02-26T07:53:14.525Z,103098.88
2019-02-26T07:54:21.758Z,103102.81
2019-02-26T07:55:32.203Z,103100.97
2019-02-26T07:56:37.103Z,103100.20
2019-02-26T07:57:45.553Z,103103.00
2019-02-26T07:58:56.961Z,103097.77
2019-02-26T08:00:01.362Z,103100.94
2019-02-26T08:01:08.287Z,103099.03
2019-02-26T08:02:14.969Z,103098.39
2019-02-26T08:03:24.325Z,103098.60
2019-02-26T08:04:32.321Z,103100.91
2019-02-26T08:05:39.728Z,103107.45
2019-02-26T08:06:46.719Z,103102.98
2019-02-26T08:07:54.433Z,103103.55
2019-02-26T08:09:04.632Z,103105.03
2019-02-26T08:10:16.790Z,103107.81
2019-02-26T08:11:23.199Z,103107.58
2019-02-26T08:12:32.696Z,103113.72
2019-02-26T08:13:39.353Z,103112.16
2019-02-26T08:14:47.727Z,103108.10
2019-02-26T08:15:55.838Z,103111.67
2019-02-26T08:17:03.940Z,103104.73
2019-02-26T08:18:11.819Z,103112.72
2019-02-26T08:19:18.474Z,103106.12
2019-02-26T08:20:25.164Z,103107.16
2019-02-26T08:21:32.259Z,103106.55
2019-02-26T08:22:39.687Z,103107.65
2019-02-26T08:23:48.240Z,103111.27
2019-02-26T08:24:56.296Z,103113.18
2019-02-26T08:26:03.554Z,103113.89
2019-02-26T08:27:11.619Z,103109.84
2019-02-26T08:28:22.127Z,103110.92
2019-02-26T08:29:30.809Z,103111.58
2019-02-26T08:30:40.234Z,103113.91
2019-02-26T08:31:47.486Z,103120.04
2019-02-26T08:32:56.358Z,103115.05
2019-02-26T08:34:02.770Z,103113.11
2019-02-26T08:35:10.201Z,103117.52
2019-02-26T08:36:17.247Z,103118.11
2019-02-26T08:37:24.357Z,103119.17
2019-02-26T08:38:31.054Z,103117.31
2019-02-26T08:39:38.680Z,103115.46
2019-02-26T08:40:46.191Z,103117.80
2019-02-26T08:42:09.444Z,103122.73
2019-02-26T08:43:16.133Z,103120.39
2019-02-26T08:44:23.488Z,103118.53
2019-02-26T08:45:31.149Z,103117.46
2019-02-26T08:46:39.876Z,103114.73
2019-02-26T08:47:46.891Z,103117.92
2019-02-26T08:48:53.580Z,103114.28
2019-02-26T08:50:03.612Z,103119.16
2019-02-26T08:51:13.635Z,103118.12
2019-02-26T08:52:19.920Z,103105.98
2019-02-26T08:53:28.855Z,103114.63
2019-02-26T08:54:35.871Z,103103.66
2019-02-26T08:55:42.773Z,103115.33
2019-02-26T08:56:49.408Z,103109.99
2019-02-26T08:57:56.620Z,103116.88
2019-02-26T08:59:03.683Z,103117.78
2019-02-26T09:00:19.262Z,103116.69
2019-02-26T09:01:26.291Z,103115.54
2019-02-26T09:02:33.322Z,103120.36
2019-02-26T09:03:40.943Z,103115.00
2019-02-26T09:04:48.152Z,103119.00
2019-02-26T09:05:56.998Z,103112.83
2019-02-26T09:07:03.554Z,103113.84
2019-02-26T09:08:12.853Z,103113.50
2019-02-26T09:09:21.000Z,103112.86
2019-02-26T09:10:27.827Z,103119.88
2019-02-26T09:11:36.378Z,103124.38
2019-02-26T09:12:44.162Z,103120.66
2019-02-26T09:13:51.670Z,103115.70
2019-02-26T09:14:58.642Z,103116.79
2019-02-26T09:16:07.856Z,103125.50
2019-02-26T09:17:18.729Z,103119.66
2019-02-26T09:18:27.434Z,103123.20
2019-02-26T09:19:33.169Z,103124.20
2019-02-26T09:20:40.195Z,103119.66
2019-02-26T09:21:47.788Z,103125.77
2019-02-26T09:22:56.499Z,103122.05
2019-02-26T09:24:07.098Z,103119.16
2019-02-26T09:25:13.422Z,103123.98
2019-02-26T09:26:20.186Z,103126.97
2019-02-26T09:27:27.205Z,103123.27
2019-02-26T09:28:35.738Z,103125.60
2019-02-26T09:29:48.349Z,103125.73
2019-02-26T09:30:50.852Z,103129.70
2019-02-26T09:31:57.547Z,103128.09
2019-02-26T09:33:06.391Z,103132.12
2019-02-26T09:34:13.392Z,103130.11
2019-02-26T09:35:25.266Z,103134.47
2019-02-26T09:36:29.452Z,103132.45
2019-02-26T09:37:36.751Z,103127.91
2019-02-26T09:38:44.319Z,103132.72
2019-02-26T09:39:54.185Z,103133.72
2019-02-26T09:41:01.061Z,103129.98
2019-02-26T09:42:09.190Z,103130.52
2019-02-26T09:43:17.347Z,103133.16
2019-02-26T09:44:26.177Z,103132.84
2019-02-26T09:45:34.181Z,103132.52
2019-02-26T09:46:43.356Z,103137.28
2019-02-26T09:47:50.215Z,103133.14
2019-02-26T09:48:58.603Z,103132.41
2019-02-26T09:50:07.967Z,103132.05
2019-02-26T09:51:16.491Z,103136.89
2019-02-26T09:52:27.538Z,103136.11
2019-02-26T09:53:32.987Z,103135.70
2019-02-26T09:54:42.681Z,103131.91
2019-02-26T09:55:48.094Z,103132.02
2019-02-26T09:56:55.470Z,103133.39
2019-02-26T09:58:02.663Z,103134.78
2019-02-26T09:59:10.303Z,103135.30
2019-02-26T10:00:22.571Z,103130.25
2019-02-26T10:01:27.770Z,103129.91
2019-02-26T10:02:34.454Z,103130.80
2019-02-26T10:03:41.559Z,103121.83
2019-02-26T10:04:49.543Z,103129.20
2019-02-26T10:05:57.872Z,103123.31
2019-02-26T10:07:07.524Z,103127.66
2019-02-26T10:08:13.497Z,103127.27
2019-02-26T10:09:20.708Z,103122.59
2019-02-26T10:10:29.146Z,103117.95
2019-02-26T10:11:35.878Z,103121.82
2019-02-26T10:12:42.930Z,103121.44
2019-02-26T10:13:51.216Z,103121.48
2019-02-26T10:15:00.167Z,103122.84
2019-02-26T10:16:08.935Z,103125.06
2019-02-26T10:17:17.194Z,103126.37
2019-02-26T10:18:25.654Z,103126.39
2019-02-26T10:19:33.731Z,103130.26
2019-02-26T10:20:43.310Z,103129.88
2019-02-26T10:21:50.059Z,103135.11
2019-02-26T10:22:59.981Z,103139.00
2019-02-26T10:24:05.078Z,103134.31
2019-02-26T10:25:12.841Z,103137.77
2019-02-26T10:26:19.525Z,103133.12
2019-02-26T10:27:31.038Z,103132.30
2019-02-26T10:28:37.293Z,103132.77
2019-02-26T10:29:45.047Z,103133.23
2019-02-26T10:30:54.419Z,103124.66
2019-02-26T10:32:00.655Z,103126.84
2019-02-26T10:33:09.807Z,103128.58
2019-02-26T10:34:19.098Z,103123.44
2019-02-26T10:35:33.227Z,103120.44
2019-02-26T10:36:37.800Z,103128.61
2019-02-26T10:37:51.825Z,103124.33
2019-02-26T10:39:00.239Z,103126.50
2019-02-26T10:40:09.516Z,103126.09
2019-02-26T10:41:16.159Z,103124.81
2019-02-26T10:42:22.844Z,103126.11
2019-02-26T10:43:29.967Z,103123.97
2019-02-26T10:44:37.582Z,103123.09
2019-02-26T10:45:47.291Z,103127.84
2019-02-26T10:46:53.062Z,103114.08
2019-02-26T10:48:01.655Z,103123.55
2019-02-26T10:49:08.138Z,103122.25
2019-02-26T10:50:19.485Z,103125.69
2019-02-26T10:51:27.050Z,103120.13
2019-02-26T10:52:34.440Z,103121.41
2019-02-26T10:53:41.214Z,103124.43
2019-02-26T10:54:47.978Z,103125.72
2019-02-26T10:55:54.657Z,103130.45
2019-02-26T10:57:04.515Z,103129.59
2019-02-26T10:58:12.913Z,103124.02
2019-02-26T10:59:19.588Z,103127.44
2019-02-26T11:00:31.203Z,103125.29
2019-02-26T11:01:36.838Z,103126.15
2019-02-26T11:02:46.000Z,103123.55
2019-02-26T11:03:55.075Z,103124.44
2019-02-26T11:05:01.214Z,103129.13
2019-02-26T11:06:09.910Z,103121.84
2019-02-26T11:07:16.363Z,103127.00
2019-02-26T11:08:26.635Z,103130.42
2019-02-26T11:09:32.040Z,103127.44
2019-02-26T11:10:41.816Z,103130.44
2019-02-26T11:11:47.255Z,103132.58
2019-02-26T11:12:56.264Z,103131.70
2019-02-26T11:14:05.133Z,103136.45
2019-02-26T11:15:12.334Z,103136.02
2019-02-26T11:16:25.224Z,103136.84
2019-02-26T11:17:28.985Z,103135.12
2019-02-26T11:18:37.384Z,103132.94
2019-02-26T11:19:45.329Z,103136.41
2019-02-26T11:20:55.406Z,103128.22
2019-02-26T11:22:03.879Z,103135.08
2019-02-26T11:23:11.976Z,103139.36
2019-02-26T11:24:17.715Z,103134.20
2019-02-26T11:25:27.186Z,103131.19
2019-02-26T11:26:35.203Z,103138.93
2019-02-26T11:27:43.477Z,103137.60
2019-02-26T11:28:50.556Z,103129.02
2019-02-26T11:29:59.605Z,103128.16
2019-02-26T11:31:08.870Z,103128.98
2019-02-26T11:32:15.767Z,103133.28
2019-02-26T11:33:22.936Z,103132.84
2019-02-26T11:34:32.771Z,103126.80
2019-02-26T11:35:39.641Z,103126.34
2019-02-26T11:36:46.970Z,103130.22
2019-02-26T11:37:55.377Z,103128.48
2019-02-26T11:39:04.272Z,103126.33
2019-02-26T11:40:13.578Z,103125.44
2019-02-26T11:41:20.460Z,103124.99
2019-02-26T11:42:28.738Z,103119.83
2019-02-26T11:43:36.302Z,103124.55
2019-02-26T11:44:43.344Z,103119.37
2019-02-26T11:45:50.308Z,103124.94
2019-02-26T11:46:57.366Z,103116.29
2019-02-26T11:48:06.115Z,103125.32
2019-02-26T11:49:16.337Z,103117.13
2019-02-26T11:50:26.980Z,103119.70
2019-02-26T11:51:37.064Z,103122.69
2019-02-26T11:52:40.158Z,103119.20
2019-02-26T11:53:46.971Z,103113.19
2019-02-26T11:54:55.853Z,103116.23
2019-02-26T11:56:03.052Z,103109.77
2019-02-26T11:57:11.021Z,103112.75
2019-02-26T11:58:19.885Z,103108.02
2019-02-26T11:59:26.663Z,103109.70
2019-02-26T12:00:52.947Z,103110.13
2019-02-26T12:02:01.347Z,103109.68
2019-02-26T12:03:08.812Z,103107.48
2019-02-26T12:04:17.020Z,103103.59
2019-02-26T12:05:31.456Z,103100.51
2019-02-26T12:06:33.335Z,103103.48
2019-02-26T12:07:40.344Z,103102.16
2019-02-26T12:08:47.932Z,103102.52
2019-02-26T12:09:57.768Z,103101.55
2019-02-26T12:11:06.590Z,103101.92
2019-02-26T12:12:12.340Z,103104.90
2019-02-26T12:13:22.222Z,103107.84
2019-02-26T12:14:28.719Z,103104.29
2019-02-26T12:15:36.287Z,103110.22
2019-02-26T12:16:43.855Z,103110.60
2019-02-26T12:17:51.761Z,103106.72
2019-02-26T12:19:01.318Z,103099.75
2019-02-26T12:20:12.129Z,103103.19
2019-02-26T12:21:19.127Z,103098.80
2019-02-26T12:22:27.886Z,103098.37
2019-02-26T12:23:36.746Z,103093.19
2019-02-26T12:24:47.818Z,103094.84
2019-02-26T12:25:55.519Z,103094.79
2019-02-26T12:27:02.886Z,103084.42
2019-02-26T12:28:11.837Z,103090.83
2019-02-26T12:29:20.491Z,103081.74
2019-02-26T12:30:26.994Z,103088.99
2019-02-26T12:31:36.373Z,103082.42
2019-02-26T12:32:45.504Z,103087.13
2019-02-26T12:33:51.703Z,103085.79
2019-02-26T12:34:58.704Z,103082.25
2019-02-26T12:36:07.405Z,103073.55
2019-02-26T12:37:14.463Z,103076.98
2019-02-26T12:38:21.533Z,103070.90
2019-02-26T12:39:31.373Z,103072.20
2019-02-26T12:40:37.866Z,103065.80
2019-02-26T12:41:47.981Z,103067.94
2019-02-26T12:42:54.207Z,103062.73
2019-02-26T12:44:02.057Z,103063.53
2019-02-26T12:45:13.591Z,103066.52
2019-02-26T12:46:21.823Z,103064.35
2019-02-26T12:47:28.440Z,103060.15
2019-02-26T12:48:40.463Z,103063.20
2019-02-26T12:49:46.086Z,103058.63
2019-02-26T12:50:55.373Z,103060.31
2019-02-26T12:52:03.266Z,103055.52
2019-02-26T12:53:14.961Z,103056.30
2019-02-26T12:54:20.196Z,103052.41
2019-02-26T12:55:31.681Z,103049.35
2019-02-26T12:56:37.356Z,103048.41
2019-02-26T12:57:47.249Z,103047.02
2019-02-26T12:58:54.596Z,103044.83
2019-02-26T13:00:01.579Z,103037.52
2019-02-26T13:01:08.620Z,103043.96
2019-02-26T13:02:17.017Z,103041.23
2019-02-26T13:03:24.062Z,103037.25
2019-02-26T13:04:31.187Z,103034.66
2019-02-26T13:05:39.280Z,103035.46
2019-02-26T13:06:48.412Z,103027.25